Main page
METAR-TAF:

METAR-TAF

Airports :

Farnborough Airport

Farnborough, England

latitude: 51-17N, longitude: 000-46W, elevation: 65 m

Current weather observation

The report was made 1 hour and 1 minutes ago, at 20:20 UTC
Wind 18 kt from the South/Southwest
Temperature 18°C
Humidity 88%
Pressure 1003 hPa
Visibility 10 km or more
Broken clouds at a height of 1800 ft
light rain

METAR: EGLF 202020Z 20018KT 9999 -RA BKN018 18/16 Q1003

Time: 22:21 (21:21 UTC)

Forecast

The report was made 4 hours and 14 minutes ago, at 17:07 UTC
Forecast valid from 20 at 18 UTC to 20 at 21 UTC
Wind 17 kt from the South/Southwest with gusts up to 27 kt
Visibility 10 km or more
Scattered clouds at a height of 2000 ft
Probability 30% :
Temporary
from 20 at 18 UTC to 20 at 21 UTC
Wind 25 kt from the South/Southwest with gusts up to 40 kt

TAF: EGLF 201707Z 2018/2021 21017G27KT 9999 SCT020 PROB30 TEMPO 2018/2021 21025G40KT

Weather observations and forecasts of more than 4000 airports (METAR and TAF reports).

The available stations are represented by yellow and red dots on the map.

Hover mouse over dot to see the name of the station.

Then click to see weather observations and forecasts.

To change the map : click on the green buttons with a black cross to zoom in, on the green button with a dash to zoom out, or on the green arrows for adjacent maps.


METAR-TAF: